Aeroporto :







RITROVATECI SU...

 
LOGIN :

Iscrizione | Disclaimer

   EN    FR    IT 

 









Sommario :    VFR   VFR Marginale   IFR   IFR Intensivo   IFR Molto Intensivo
Visibilità : 
Base nubi : 
>= 8 km
>= 3000ft
5 / 8 km
1000 / 3000 ft
1500m / 5 km
500 / 1000 ft
800 / 1500m
200 / 500 ft
< 800m
< 200 ft
Simboli :   Temporali  Nebbia  Neve Forte  Precipitazioni Forti  Vento > 20 kt






- Altitudine del aeroporto : 180 ft
- Codice IATA : YZV


CYZV - Sept-Iles

ULTIMO METAR :
  • 242200Z 31010G16KT 15SM FEW180 M09/M16 A3012 RMK AC1 AC TR PRESRR SLP206

METARs OBSOLETI :
  • 242100Z 31009KT 30SM FEW040 FEW180 M08/M16 A3006 RMK CU1AC1 CU TR AC TR PRESRR SLP186
  • 242000Z 33011G25KT 290V360 30SM DRSN FEW040 FEW180 M07/M16 A2999 RMK CU1AC1 CU TR PRESRR SLP160

TAF AMD TAF CYZV
Valido dal 24 a 21 ore il 25 a 18 ore UTC


242114Z 2421/2518 31010KT P6SM FEW040 FEW180
FM251200 32007KT P6SM BKN120
BECMG 2515/2517 09005KT
FM251700 09005KT 6SM -SHSN BKN030 RMK NXT FCST BY 250000Z
FIR CZUL / America del Nord



MetMap, La meteo Aeronautica in un colpo d'occhio ! - Copyright ORBIFLY Dicembre 2007 - Disclaimer

ORBIFLY MET'MAP TEAM :

Programmazione e sviluppo : Alexandra Zaïnal
Concezione : Baudouin d'Aumeries
Aiuto per la programmazione : Marc-Olivier Méhu
Supporto tecnico e logistico : Manuel Goepfert
Aiuto per la traduzione : Arnaldo La Scala

Contatto : metmap@orbifly.com




FONTI E CREDITI :

   NOAA